< < Back
Terminal Aerodrome Forecast


Current Version              Previous Versions:   1  2  3  4  5  6  7  8  9  

Terminal Aerodrome Forecast

432
FTUS44 KHUN 011727
TAFHSV
TAF
KHSV 011727Z 0118/0218 28007KT P6SM FEW050 SCT250
     FM020000 VRB03KT P6SM SCT050 SCT250
     FM021000 VRB02KT 6SM BR FEW010 FEW250
     FM021300 01003KT P6SM FEW035 FEW250=

Latest METAR

602
SAUS80 KWBC 020000 RRC
MTRHSV
METAR KHSV 012353Z 35008G15KT 10SM FEW075 SCT110 33/17 A2997 RMK AO2
SLP142 T03330172 10350 20322 55001


USA.gov is the U.S. government's official web portal to all federal, state and local government web resources and services.